sensor_id;sensor_type;location;lat;lon;timestamp;P1;durP1;ratioP1;P2;durP2;ratioP2
77061;SDS011;65989;51.686;5.138;2023-08-07T00:01:17;11.40;;;2.87;;
77061;SDS011;65989;51.686;5.138;2023-08-07T00:03:42;13.97;;;2.40;;
77061;SDS011;65989;51.686;5.138;2023-08-07T00:06:07;9.83;;;2.20;;
77061;SDS011;65989;51.686;5.138;2023-08-07T00:08:32;9.77;;;2.47;;
77061;SDS011;65989;51.686;5.138;2023-08-07T00:11:10;12.83;;;2.50;;
77061;SDS011;65989;51.686;5.138;2023-08-07T00:13:35;13.43;;;2.70;;
77061;SDS011;65989;51.686;5.138;2023-08-07T00:16:01;9.53;;;2.60;;
77061;SDS011;65989;51.686;5.138;2023-08-07T00:18:27;11.57;;;2.50;;
77061;SDS011;65989;51.686;5.138;2023-08-07T00:20:52;19.02;;;2.78;;
77061;SDS011;65989;51.686;5.138;2023-08-07T00:23:17;10.73;;;2.70;;
77061;SDS011;65989;51.686;5.138;2023-08-07T00:25:42;11.87;;;2.70;;
77061;SDS011;65989;51.686;5.138;2023-08-07T00:28:08;11.53;;;2.50;;
77061;SDS011;65989;51.686;5.138;2023-08-07T00:30:33;10.23;;;2.23;;
77061;SDS011;65989;51.686;5.138;2023-08-07T00:32:58;12.53;;;2.70;;
77061;SDS011;65989;51.686;5.138;2023-08-07T00:35:23;20.00;;;2.87;;
77061;SDS011;65989;51.686;5.138;2023-08-07T00:37:48;16.17;;;2.60;;
77061;SDS011;65989;51.686;5.138;2023-08-07T00:40:14;16.30;;;3.17;;
77061;SDS011;65989;51.686;5.138;2023-08-07T00:42:39;16.57;;;2.97;;
77061;SDS011;65989;51.686;5.138;2023-08-07T00:45:05;15.17;;;2.73;;
77061;SDS011;65989;51.686;5.138;2023-08-07T00:47:30;18.45;;;2.67;;
77061;SDS011;65989;51.686;5.138;2023-08-07T00:49:56;11.60;;;2.67;;
77061;SDS011;65989;51.686;5.138;2023-08-07T00:52:21;20.98;;;3.00;;
77061;SDS011;65989;51.686;5.138;2023-08-07T00:54:47;14.07;;;2.80;;
77061;SDS011;65989;51.686;5.138;2023-08-07T00:57:12;13.33;;;2.80;;
77061;SDS011;65989;51.686;5.138;2023-08-07T00:59:40;21.67;;;3.38;;
77061;SDS011;65989;51.686;5.138;2023-08-07T01:02:05;13.87;;;2.63;;
77061;SDS011;65989;51.686;5.138;2023-08-07T01:04:31;14.85;;;2.60;;
77061;SDS011;65989;51.686;5.138;2023-08-07T01:06:56;12.73;;;2.57;;
77061;SDS011;65989;51.686;5.138;2023-08-07T01:09:21;20.77;;;2.80;;
77061;SDS011;65989;51.686;5.138;2023-08-07T01:11:50;8.27;;;3.00;;
77061;SDS011;65989;51.686;5.138;2023-08-07T01:14:36;12.27;;;2.35;;
77061;SDS011;65989;51.686;5.138;2023-08-07T01:17:10;11.13;;;2.60;;
77061;SDS011;65989;51.686;5.138;2023-08-07T01:19:36;15.13;;;2.75;;
77061;SDS011;65989;51.686;5.138;2023-08-07T01:22:11;8.85;;;2.33;;
77061;SDS011;65989;51.686;5.138;2023-08-07T01:24:38;14.57;;;2.60;;
77061;SDS011;65989;51.686;5.138;2023-08-07T01:29:35;13.47;;;2.80;;
77061;SDS011;65989;51.686;5.138;2023-08-07T01:32:02;8.38;;;2.28;;
77061;SDS011;65989;51.686;5.138;2023-08-07T01:34:30;12.25;;;2.40;;
77061;SDS011;65989;51.686;5.138;2023-08-07T01:36:56;10.02;;;2.50;;
77061;SDS011;65989;51.686;5.138;2023-08-07T01:39:23;19.23;;;3.28;;
77061;SDS011;65989;51.686;5.138;2023-08-07T01:41:48;12.00;;;3.07;;
77061;SDS011;65989;51.686;5.138;2023-08-07T01:44:14;13.57;;;3.17;;
77061;SDS011;65989;51.686;5.138;2023-08-07T01:46:39;13.93;;;3.20;;
77061;SDS011;65989;51.686;5.138;2023-08-07T01:49:04;14.90;;;3.10;;
77061;SDS011;65989;51.686;5.138;2023-08-07T01:51:29;10.90;;;2.93;;
77061;SDS011;65989;51.686;5.138;2023-08-07T01:53:55;12.93;;;2.93;;
77061;SDS011;65989;51.686;5.138;2023-08-07T01:56:20;12.87;;;3.20;;
77061;SDS011;65989;51.686;5.138;2023-08-07T01:58:45;15.00;;;3.17;;
77061;SDS011;65989;51.686;5.138;2023-08-07T02:01:11;17.20;;;3.43;;
77061;SDS011;65989;51.686;5.138;2023-08-07T02:03:36;15.17;;;3.07;;
77061;SDS011;65989;51.686;5.138;2023-08-07T02:06:01;14.30;;;3.03;;
77061;SDS011;65989;51.686;5.138;2023-08-07T02:08:27;13.57;;;3.60;;
77061;SDS011;65989;51.686;5.138;2023-08-07T02:10:52;14.45;;;2.88;;
77061;SDS011;65989;51.686;5.138;2023-08-07T02:13:17;18.67;;;3.67;;
77061;SDS011;65989;51.686;5.138;2023-08-07T02:15:42;14.03;;;3.27;;
77061;SDS011;65989;51.686;5.138;2023-08-07T02:18:08;16.63;;;3.30;;
77061;SDS011;65989;51.686;5.138;2023-08-07T02:20:33;15.40;;;3.23;;
77061;SDS011;65989;51.686;5.138;2023-08-07T02:22:58;18.53;;;3.43;;
77061;SDS011;65989;51.686;5.138;2023-08-07T02:25:23;12.97;;;3.50;;
77061;SDS011;65989;51.686;5.138;2023-08-07T02:27:49;14.73;;;3.23;;
77061;SDS011;65989;51.686;5.138;2023-08-07T02:30:14;14.83;;;2.90;;
77061;SDS011;65989;51.686;5.138;2023-08-07T02:32:39;14.60;;;3.07;;
77061;SDS011;65989;51.686;5.138;2023-08-07T02:35:07;17.05;;;4.00;;
77061;SDS011;65989;51.686;5.138;2023-08-07T02:37:33;13.37;;;3.43;;
77061;SDS011;65989;51.686;5.138;2023-08-07T02:39:58;15.13;;;2.93;;
77061;SDS011;65989;51.686;5.138;2023-08-07T02:42:23;14.87;;;3.13;;
77061;SDS011;65989;51.686;5.138;2023-08-07T02:44:49;14.70;;;2.87;;
77061;SDS011;65989;51.686;5.138;2023-08-07T02:47:14;12.73;;;3.40;;
77061;SDS011;65989;51.686;5.138;2023-08-07T02:49:39;16.57;;;3.67;;
77061;SDS011;65989;51.686;5.138;2023-08-07T02:52:04;16.97;;;4.00;;
77061;SDS011;65989;51.686;5.138;2023-08-07T02:54:30;16.73;;;3.27;;
77061;SDS011;65989;51.686;5.138;2023-08-07T02:56:56;14.93;;;3.80;;
77061;SDS011;65989;51.686;5.138;2023-08-07T02:59:21;15.07;;;2.90;;
77061;SDS011;65989;51.686;5.138;2023-08-07T03:01:46;14.97;;;3.37;;
77061;SDS011;65989;51.686;5.138;2023-08-07T03:04:11;16.60;;;3.40;;
77061;SDS011;65989;51.686;5.138;2023-08-07T03:06:36;14.13;;;3.30;;
77061;SDS011;65989;51.686;5.138;2023-08-07T03:09:02;15.93;;;3.17;;
77061;SDS011;65989;51.686;5.138;2023-08-07T03:11:27;16.30;;;3.10;;
77061;SDS011;65989;51.686;5.138;2023-08-07T03:13:52;17.23;;;3.43;;
77061;SDS011;65989;51.686;5.138;2023-08-07T03:16:17;14.00;;;2.87;;
77061;SDS011;65989;51.686;5.138;2023-08-07T03:18:43;11.37;;;2.97;;
77061;SDS011;65989;51.686;5.138;2023-08-07T03:21:08;17.17;;;3.10;;
77061;SDS011;65989;51.686;5.138;2023-08-07T03:23:33;14.27;;;3.07;;
77061;SDS011;65989;51.686;5.138;2023-08-07T03:26:08;10.77;;;2.93;;
77061;SDS011;65989;51.686;5.138;2023-08-07T03:28:34;23.38;;;3.30;;
77061;SDS011;65989;51.686;5.138;2023-08-07T03:30:59;13.52;;;3.00;;
77061;SDS011;65989;51.686;5.138;2023-08-07T03:33:25;12.93;;;3.00;;
77061;SDS011;65989;51.686;5.138;2023-08-07T03:35:50;11.83;;;3.20;;
77061;SDS011;65989;51.686;5.138;2023-08-07T03:38:15;12.33;;;3.10;;
77061;SDS011;65989;51.686;5.138;2023-08-07T03:40:40;13.30;;;2.80;;
77061;SDS011;65989;51.686;5.138;2023-08-07T03:43:06;17.50;;;3.73;;
77061;SDS011;65989;51.686;5.138;2023-08-07T03:45:31;13.33;;;3.23;;
77061;SDS011;65989;51.686;5.138;2023-08-07T03:47:56;9.37;;;2.80;;
77061;SDS011;65989;51.686;5.138;2023-08-07T03:50:21;10.75;;;2.95;;
77061;SDS011;65989;51.686;5.138;2023-08-07T03:52:47;11.03;;;3.03;;
77061;SDS011;65989;51.686;5.138;2023-08-07T03:55:12;12.53;;;3.47;;
77061;SDS011;65989;51.686;5.138;2023-08-07T03:57:37;13.10;;;3.07;;
77061;SDS011;65989;51.686;5.138;2023-08-07T04:00:02;12.33;;;2.93;;
77061;SDS011;65989;51.686;5.138;2023-08-07T04:02:28;18.30;;;2.93;;
77061;SDS011;65989;51.686;5.138;2023-08-07T04:04:54;11.57;;;3.15;;
77061;SDS011;65989;51.686;5.138;2023-08-07T04:07:19;9.00;;;2.50;;
77061;SDS011;65989;51.686;5.138;2023-08-07T04:09:44;15.03;;;3.00;;
77061;SDS011;65989;51.686;5.138;2023-08-07T04:12:09;11.67;;;2.50;;
77061;SDS011;65989;51.686;5.138;2023-08-07T04:14:35;12.67;;;2.70;;
77061;SDS011;65989;51.686;5.138;2023-08-07T04:17:00;10.30;;;2.63;;
77061;SDS011;65989;51.686;5.138;2023-08-07T04:19:25;12.70;;;2.97;;
77061;SDS011;65989;51.686;5.138;2023-08-07T04:21:51;11.60;;;2.53;;
77061;SDS011;65989;51.686;5.138;2023-08-07T04:24:16;12.53;;;2.90;;
77061;SDS011;65989;51.686;5.138;2023-08-07T04:26:41;11.13;;;2.87;;
77061;SDS011;65989;51.686;5.138;2023-08-07T04:29:07;6.07;;;2.30;;
77061;SDS011;65989;51.686;5.138;2023-08-07T04:31:32;16.70;;;2.83;;
77061;SDS011;65989;51.686;5.138;2023-08-07T04:33:57;11.13;;;2.70;;
77061;SDS011;65989;51.686;5.138;2023-08-07T04:36:23;11.05;;;2.45;;
77061;SDS011;65989;51.686;5.138;2023-08-07T04:38:49;8.63;;;2.10;;
77061;SDS011;65989;51.686;5.138;2023-08-07T04:41:15;8.73;;;2.20;;
77061;SDS011;65989;51.686;5.138;2023-08-07T04:43:40;14.73;;;2.60;;
77061;SDS011;65989;51.686;5.138;2023-08-07T04:46:06;11.60;;;2.30;;
77061;SDS011;65989;51.686;5.138;2023-08-07T04:48:31;10.30;;;2.50;;
77061;SDS011;65989;51.686;5.138;2023-08-07T04:50:58;9.00;;;2.75;;
77061;SDS011;65989;51.686;5.138;2023-08-07T04:53:23;15.63;;;2.67;;
77061;SDS011;65989;51.686;5.138;2023-08-07T04:55:48;10.10;;;2.30;;
77061;SDS011;65989;51.686;5.138;2023-08-07T04:58:13;15.17;;;2.33;;
77061;SDS011;65989;51.686;5.138;2023-08-07T05:00:39;10.97;;;2.20;;
77061;SDS011;65989;51.686;5.138;2023-08-07T05:03:04;11.90;;;2.63;;
77061;SDS011;65989;51.686;5.138;2023-08-07T05:05:29;13.33;;;2.73;;
77061;SDS011;65989;51.686;5.138;2023-08-07T05:07:55;8.13;;;2.30;;
77061;SDS011;65989;51.686;5.138;2023-08-07T05:10:20;9.23;;;2.10;;
77061;SDS011;65989;51.686;5.138;2023-08-07T05:12:45;10.33;;;2.50;;
77061;SDS011;65989;51.686;5.138;2023-08-07T05:15:10;13.60;;;2.53;;
77061;SDS011;65989;51.686;5.138;2023-08-07T05:17:36;11.17;;;2.53;;
77061;SDS011;65989;51.686;5.138;2023-08-07T05:20:01;14.17;;;2.90;;
77061;SDS011;65989;51.686;5.138;2023-08-07T05:22:26;12.63;;;2.33;;
77061;SDS011;65989;51.686;5.138;2023-08-07T05:24:51;13.90;;;2.70;;
77061;SDS011;65989;51.686;5.138;2023-08-07T05:27:17;14.97;;;2.77;;
77061;SDS011;65989;51.686;5.138;2023-08-07T05:29:42;11.67;;;2.60;;
77061;SDS011;65989;51.686;5.138;2023-08-07T05:32:11;11.93;;;2.60;;
77061;SDS011;65989;51.686;5.138;2023-08-07T05:34:36;10.65;;;2.50;;
77061;SDS011;65989;51.686;5.138;2023-08-07T05:37:01;13.43;;;2.70;;
77061;SDS011;65989;51.686;5.138;2023-08-07T05:39:26;14.57;;;3.27;;
77061;SDS011;65989;51.686;5.138;2023-08-07T05:41:52;11.38;;;2.80;;
77061;SDS011;65989;51.686;5.138;2023-08-07T05:44:19;15.10;;;3.13;;
77061;SDS011;65989;51.686;5.138;2023-08-07T05:46:44;15.65;;;3.30;;
77061;SDS011;65989;51.686;5.138;2023-08-07T05:49:10;13.47;;;2.80;;
77061;SDS011;65989;51.686;5.138;2023-08-07T05:51:35;14.67;;;2.53;;
77061;SDS011;65989;51.686;5.138;2023-08-07T05:54:03;11.83;;;2.60;;
77061;SDS011;65989;51.686;5.138;2023-08-07T05:56:28;15.10;;;3.00;;
77061;SDS011;65989;51.686;5.138;2023-08-07T05:58:53;12.90;;;2.60;;
77061;SDS011;65989;51.686;5.138;2023-08-07T06:01:19;15.73;;;2.80;;
77061;SDS011;65989;51.686;5.138;2023-08-07T06:03:44;12.60;;;2.57;;
77061;SDS011;65989;51.686;5.138;2023-08-07T06:06:09;19.80;;;2.93;;
77061;SDS011;65989;51.686;5.138;2023-08-07T06:08:35;13.90;;;2.30;;
77061;SDS011;65989;51.686;5.138;2023-08-07T06:11:00;12.50;;;2.60;;
77061;SDS011;65989;51.686;5.138;2023-08-07T06:13:28;11.43;;;2.33;;
77061;SDS011;65989;51.686;5.138;2023-08-07T06:15:53;12.17;;;2.70;;
77061;SDS011;65989;51.686;5.138;2023-08-07T06:18:19;11.48;;;2.30;;
77061;SDS011;65989;51.686;5.138;2023-08-07T06:20:44;9.90;;;2.53;;
77061;SDS011;65989;51.686;5.138;2023-08-07T06:23:10;11.37;;;2.87;;
77061;SDS011;65989;51.686;5.138;2023-08-07T06:25:35;15.13;;;3.13;;
77061;SDS011;65989;51.686;5.138;2023-08-07T06:28:00;10.67;;;2.33;;
77061;SDS011;65989;51.686;5.138;2023-08-07T06:30:25;13.07;;;2.80;;
77061;SDS011;65989;51.686;5.138;2023-08-07T06:32:50;16.67;;;2.80;;
77061;SDS011;65989;51.686;5.138;2023-08-07T06:35:16;16.33;;;3.23;;
77061;SDS011;65989;51.686;5.138;2023-08-07T06:37:41;16.77;;;2.80;;
77061;SDS011;65989;51.686;5.138;2023-08-07T06:40:06;12.30;;;2.57;;
77061;SDS011;65989;51.686;5.138;2023-08-07T06:42:32;13.40;;;2.47;;
77061;SDS011;65989;51.686;5.138;2023-08-07T06:44:57;10.27;;;2.50;;
77061;SDS011;65989;51.686;5.138;2023-08-07T06:47:22;11.43;;;2.43;;
77061;SDS011;65989;51.686;5.138;2023-08-07T06:49:48;14.97;;;2.77;;
77061;SDS011;65989;51.686;5.138;2023-08-07T06:52:13;15.67;;;2.67;;
77061;SDS011;65989;51.686;5.138;2023-08-07T06:54:38;13.07;;;2.83;;
77061;SDS011;65989;51.686;5.138;2023-08-07T06:57:03;18.63;;;3.67;;
77061;SDS011;65989;51.686;5.138;2023-08-07T06:59:29;13.37;;;2.90;;
77061;SDS011;65989;51.686;5.138;2023-08-07T07:01:54;11.93;;;2.77;;
77061;SDS011;65989;51.686;5.138;2023-08-07T07:04:22;13.63;;;3.00;;
77061;SDS011;65989;51.686;5.138;2023-08-07T07:06:48;15.73;;;2.65;;
77061;SDS011;65989;51.686;5.138;2023-08-07T07:09:13;16.83;;;2.57;;
77061;SDS011;65989;51.686;5.138;2023-08-07T07:11:41;12.48;;;2.40;;
77061;SDS011;65989;51.686;5.138;2023-08-07T07:14:06;8.50;;;2.50;;
77061;SDS011;65989;51.686;5.138;2023-08-07T07:16:32;10.13;;;2.60;;
77061;SDS011;65989;51.686;5.138;2023-08-07T07:18:57;9.77;;;2.23;;
77061;SDS011;65989;51.686;5.138;2023-08-07T07:21:23;9.95;;;2.10;;
77061;SDS011;65989;51.686;5.138;2023-08-07T07:23:48;11.50;;;2.50;;
77061;SDS011;65989;51.686;5.138;2023-08-07T07:26:13;9.13;;;2.47;;
77061;SDS011;65989;51.686;5.138;2023-08-07T07:28:39;11.00;;;2.20;;
77061;SDS011;65989;51.686;5.138;2023-08-07T07:31:04;11.17;;;2.10;;
77061;SDS011;65989;51.686;5.138;2023-08-07T07:33:30;6.47;;;2.00;;
77061;SDS011;65989;51.686;5.138;2023-08-07T07:35:55;9.30;;;2.28;;
77061;SDS011;65989;51.686;5.138;2023-08-07T07:38:20;9.73;;;2.40;;
77061;SDS011;65989;51.686;5.138;2023-08-07T07:40:47;10.93;;;2.37;;
77061;SDS011;65989;51.686;5.138;2023-08-07T07:43:12;7.53;;;2.50;;
77061;SDS011;65989;51.686;5.138;2023-08-07T07:45:37;11.63;;;3.07;;
77061;SDS011;65989;51.686;5.138;2023-08-07T07:48:03;11.70;;;2.70;;
77061;SDS011;65989;51.686;5.138;2023-08-07T07:50:28;13.27;;;3.17;;
77061;SDS011;65989;51.686;5.138;2023-08-07T07:52:53;10.73;;;2.53;;
77061;SDS011;65989;51.686;5.138;2023-08-07T07:55:19;11.90;;;2.50;;
77061;SDS011;65989;51.686;5.138;2023-08-07T07:57:44;13.57;;;2.45;;
77061;SDS011;65989;51.686;5.138;2023-08-07T08:00:10;12.77;;;2.23;;
77061;SDS011;65989;51.686;5.138;2023-08-07T08:02:38;12.80;;;2.47;;
77061;SDS011;65989;51.686;5.138;2023-08-07T08:05:03;12.33;;;2.37;;
77061;SDS011;65989;51.686;5.138;2023-08-07T08:07:28;13.52;;;2.45;;
77061;SDS011;65989;51.686;5.138;2023-08-07T08:09:54;14.10;;;2.57;;
77061;SDS011;65989;51.686;5.138;2023-08-07T08:12:21;11.03;;;2.53;;
77061;SDS011;65989;51.686;5.138;2023-08-07T08:14:46;12.05;;;2.17;;
77061;SDS011;65989;51.686;5.138;2023-08-07T08:17:11;11.77;;;2.60;;
77061;SDS011;65989;51.686;5.138;2023-08-07T08:19:36;10.93;;;2.57;;
77061;SDS011;65989;51.686;5.138;2023-08-07T08:22:02;8.77;;;2.13;;
77061;SDS011;65989;51.686;5.138;2023-08-07T08:24:27;13.00;;;2.50;;
77061;SDS011;65989;51.686;5.138;2023-08-07T08:26:52;10.17;;;2.50;;
77061;SDS011;65989;51.686;5.138;2023-08-07T08:29:17;9.80;;;2.30;;
77061;SDS011;65989;51.686;5.138;2023-08-07T08:31:43;14.47;;;2.60;;
77061;SDS011;65989;51.686;5.138;2023-08-07T08:34:08;11.70;;;2.50;;
77061;SDS011;65989;51.686;5.138;2023-08-07T08:36:33;9.50;;;2.37;;
77061;SDS011;65989;51.686;5.138;2023-08-07T08:38:58;9.73;;;2.23;;
77061;SDS011;65989;51.686;5.138;2023-08-07T08:41:24;13.20;;;2.20;;
77061;SDS011;65989;51.686;5.138;2023-08-07T08:43:51;11.95;;;2.38;;
77061;SDS011;65989;51.686;5.138;2023-08-07T08:46:18;14.77;;;2.58;;
77061;SDS011;65989;51.686;5.138;2023-08-07T08:48:45;12.93;;;2.90;;
77061;SDS011;65989;51.686;5.138;2023-08-07T08:51:11;12.40;;;2.20;;
77061;SDS011;65989;51.686;5.138;2023-08-07T08:53:38;11.95;;;2.35;;
77061;SDS011;65989;51.686;5.138;2023-08-07T08:56:03;10.00;;;2.10;;
77061;SDS011;65989;51.686;5.138;2023-08-07T08:58:29;14.00;;;2.13;;
77061;SDS011;65989;51.686;5.138;2023-08-07T09:00:54;6.60;;;2.10;;
77061;SDS011;65989;51.686;5.138;2023-08-07T09:03:19;10.57;;;2.20;;
77061;SDS011;65989;51.686;5.138;2023-08-07T09:05:45;7.90;;;2.00;;
77061;SDS011;65989;51.686;5.138;2023-08-07T09:08:11;7.72;;;2.00;;
77061;SDS011;65989;51.686;5.138;2023-08-07T09:10:37;8.67;;;2.13;;
77061;SDS011;65989;51.686;5.138;2023-08-07T09:13:03;9.02;;;1.98;;
77061;SDS011;65989;51.686;5.138;2023-08-07T09:15:32;9.52;;;1.77;;
77061;SDS011;65989;51.686;5.138;2023-08-07T09:17:58;8.33;;;2.00;;
77061;SDS011;65989;51.686;5.138;2023-08-07T09:20:27;7.90;;;2.10;;
77061;SDS011;65989;51.686;5.138;2023-08-07T09:22:53;7.15;;;1.98;;
77061;SDS011;65989;51.686;5.138;2023-08-07T09:25:28;6.97;;;2.30;;
77061;SDS011;65989;51.686;5.138;2023-08-07T09:27:54;9.65;;;2.05;;
77061;SDS011;65989;51.686;5.138;2023-08-07T09:30:20;10.43;;;2.00;;
77061;SDS011;65989;51.686;5.138;2023-08-07T09:32:47;6.43;;;1.97;;
77061;SDS011;65989;51.686;5.138;2023-08-07T09:35:12;8.10;;;1.83;;
77061;SDS011;65989;51.686;5.138;2023-08-07T09:37:38;8.30;;;1.80;;
77061;SDS011;65989;51.686;5.138;2023-08-07T09:40:03;11.13;;;2.03;;
77061;SDS011;65989;51.686;5.138;2023-08-07T09:42:32;11.80;;;2.30;;
77061;SDS011;65989;51.686;5.138;2023-08-07T09:44:59;9.98;;;2.00;;
77061;SDS011;65989;51.686;5.138;2023-08-07T09:47:24;6.70;;;1.98;;
77061;SDS011;65989;51.686;5.138;2023-08-07T09:49:49;10.67;;;2.10;;
77061;SDS011;65989;51.686;5.138;2023-08-07T09:52:18;7.93;;;1.80;;
77061;SDS011;65989;51.686;5.138;2023-08-07T09:54:44;5.10;;;1.50;;
77061;SDS011;65989;51.686;5.138;2023-08-07T09:57:09;9.03;;;1.73;;
77061;SDS011;65989;51.686;5.138;2023-08-07T09:59:34;9.13;;;1.83;;
77061;SDS011;65989;51.686;5.138;2023-08-07T10:02:01;5.07;;;1.70;;
77061;SDS011;65989;51.686;5.138;2023-08-07T10:04:29;6.85;;;1.85;;
77061;SDS011;65989;51.686;5.138;2023-08-07T10:06:54;7.70;;;1.90;;
77061;SDS011;65989;51.686;5.138;2023-08-07T10:09:20;5.78;;;1.85;;
77061;SDS011;65989;51.686;5.138;2023-08-07T10:11:46;6.53;;;1.83;;
77061;SDS011;65989;51.686;5.138;2023-08-07T10:14:14;7.00;;;2.00;;
77061;SDS011;65989;51.686;5.138;2023-08-07T10:16:39;5.23;;;1.70;;
77061;SDS011;65989;51.686;5.138;2023-08-07T10:19:06;8.93;;;2.03;;
77061;SDS011;65989;51.686;5.138;2023-08-07T10:21:32;5.97;;;1.80;;
77061;SDS011;65989;51.686;5.138;2023-08-07T10:23:58;11.15;;;1.95;;
77061;SDS011;65989;51.686;5.138;2023-08-07T10:26:24;9.70;;;1.92;;
77061;SDS011;65989;51.686;5.138;2023-08-07T10:28:50;5.93;;;1.67;;
77061;SDS011;65989;51.686;5.138;2023-08-07T10:31:17;10.10;;;2.10;;
77061;SDS011;65989;51.686;5.138;2023-08-07T10:33:43;11.15;;;2.00;;
77061;SDS011;65989;51.686;5.138;2023-08-07T10:36:08;8.50;;;1.90;;
77061;SDS011;65989;51.686;5.138;2023-08-07T10:38:34;7.57;;;1.95;;
77061;SDS011;65989;51.686;5.138;2023-08-07T10:41:06;8.23;;;2.00;;
77061;SDS011;65989;51.686;5.138;2023-08-07T10:43:39;6.35;;;1.90;;
77061;SDS011;65989;51.686;5.138;2023-08-07T10:46:11;7.57;;;1.85;;
77061;SDS011;65989;51.686;5.138;2023-08-07T10:48:40;6.40;;;2.10;;
77061;SDS011;65989;51.686;5.138;2023-08-07T10:51:05;7.13;;;1.97;;
77061;SDS011;65989;51.686;5.138;2023-08-07T10:55:57;7.93;;;1.50;;
77061;SDS011;65989;51.686;5.138;2023-08-07T11:00:48;6.63;;;1.90;;
77061;SDS011;65989;51.686;5.138;2023-08-07T11:03:20;6.00;;;1.77;;
77061;SDS011;65989;51.686;5.138;2023-08-07T11:05:45;7.28;;;1.95;;
77061;SDS011;65989;51.686;5.138;2023-08-07T11:08:11;7.18;;;1.90;;
77061;SDS011;65989;51.686;5.138;2023-08-07T11:10:36;7.07;;;1.80;;
77061;SDS011;65989;51.686;5.138;2023-08-07T11:13:01;6.57;;;1.70;;
77061;SDS011;65989;51.686;5.138;2023-08-07T11:15:27;10.87;;;2.30;;
77061;SDS011;65989;51.686;5.138;2023-08-07T11:17:52;6.20;;;2.00;;
77061;SDS011;65989;51.686;5.138;2023-08-07T11:20:18;6.05;;;1.60;;
77061;SDS011;65989;51.686;5.138;2023-08-07T11:22:44;7.25;;;1.85;;
77061;SDS011;65989;51.686;5.138;2023-08-07T11:25:09;6.57;;;1.87;;
77061;SDS011;65989;51.686;5.138;2023-08-07T11:27:36;4.77;;;1.70;;
77061;SDS011;65989;51.686;5.138;2023-08-07T11:30:01;4.63;;;1.70;;
77061;SDS011;65989;51.686;5.138;2023-08-07T11:32:27;8.30;;;2.03;;
77061;SDS011;65989;51.686;5.138;2023-08-07T11:34:53;6.93;;;1.93;;
77061;SDS011;65989;51.686;5.138;2023-08-07T11:37:18;6.00;;;2.10;;
77061;SDS011;65989;51.686;5.138;2023-08-07T11:39:43;6.47;;;2.20;;
77061;SDS011;65989;51.686;5.138;2023-08-07T11:42:09;5.10;;;1.77;;
77061;SDS011;65989;51.686;5.138;2023-08-07T11:44:34;7.73;;;1.70;;
77061;SDS011;65989;51.686;5.138;2023-08-07T11:46:59;5.53;;;1.73;;
77061;SDS011;65989;51.686;5.138;2023-08-07T11:49:24;6.40;;;1.70;;
77061;SDS011;65989;51.686;5.138;2023-08-07T11:51:50;7.73;;;2.00;;
77061;SDS011;65989;51.686;5.138;2023-08-07T11:54:15;7.23;;;1.70;;
77061;SDS011;65989;51.686;5.138;2023-08-07T11:56:41;9.05;;;2.00;;
77061;SDS011;65989;51.686;5.138;2023-08-07T11:59:07;6.50;;;1.77;;
77061;SDS011;65989;51.686;5.138;2023-08-07T12:01:36;6.83;;;1.87;;
77061;SDS011;65989;51.686;5.138;2023-08-07T12:06:30;5.87;;;1.83;;
77061;SDS011;65989;51.686;5.138;2023-08-07T12:08:56;4.45;;;1.70;;
77061;SDS011;65989;51.686;5.138;2023-08-07T12:11:21;6.43;;;1.70;;
77061;SDS011;65989;51.686;5.138;2023-08-07T12:13:47;4.27;;;1.73;;
77061;SDS011;65989;51.686;5.138;2023-08-07T12:16:13;5.60;;;1.80;;
77061;SDS011;65989;51.686;5.138;2023-08-07T12:18:43;9.35;;;1.75;;
77061;SDS011;65989;51.686;5.138;2023-08-07T12:21:08;6.10;;;1.90;;
77061;SDS011;65989;51.686;5.138;2023-08-07T12:23:34;3.97;;;1.60;;
77061;SDS011;65989;51.686;5.138;2023-08-07T12:26:00;7.57;;;1.80;;
77061;SDS011;65989;51.686;5.138;2023-08-07T12:28:25;7.03;;;1.90;;
77061;SDS011;65989;51.686;5.138;2023-08-07T12:30:51;5.70;;;1.93;;
77061;SDS011;65989;51.686;5.138;2023-08-07T12:33:16;9.43;;;2.28;;
77061;SDS011;65989;51.686;5.138;2023-08-07T12:35:42;7.90;;;2.10;;
77061;SDS011;65989;51.686;5.138;2023-08-07T12:38:07;8.13;;;2.20;;
77061;SDS011;65989;51.686;5.138;2023-08-07T12:40:34;7.82;;;2.15;;
77061;SDS011;65989;51.686;5.138;2023-08-07T12:43:01;8.52;;;2.40;;
77061;SDS011;65989;51.686;5.138;2023-08-07T12:45:26;10.60;;;3.10;;
77061;SDS011;65989;51.686;5.138;2023-08-07T12:47:52;10.93;;;2.90;;
77061;SDS011;65989;51.686;5.138;2023-08-07T12:50:17;9.33;;;2.93;;
77061;SDS011;65989;51.686;5.138;2023-08-07T12:52:42;6.80;;;2.67;;
77061;SDS011;65989;51.686;5.138;2023-08-07T12:55:10;11.93;;;2.80;;
77061;SDS011;65989;51.686;5.138;2023-08-07T12:57:36;8.93;;;2.70;;
77061;SDS011;65989;51.686;5.138;2023-08-07T13:00:02;11.90;;;2.90;;
77061;SDS011;65989;51.686;5.138;2023-08-07T13:02:27;11.53;;;2.90;;
77061;SDS011;65989;51.686;5.138;2023-08-07T13:04:52;6.77;;;2.27;;
77061;SDS011;65989;51.686;5.138;2023-08-07T13:07:19;7.38;;;2.65;;
77061;SDS011;65989;51.686;5.138;2023-08-07T13:09:44;8.80;;;2.50;;
77061;SDS011;65989;51.686;5.138;2023-08-07T13:12:09;7.20;;;2.40;;
77061;SDS011;65989;51.686;5.138;2023-08-07T13:14:34;10.27;;;2.57;;
77061;SDS011;65989;51.686;5.138;2023-08-07T13:17:00;9.50;;;2.90;;
77061;SDS011;65989;51.686;5.138;2023-08-07T13:19:25;8.20;;;2.97;;
77061;SDS011;65989;51.686;5.138;2023-08-07T13:21:50;7.73;;;2.63;;
77061;SDS011;65989;51.686;5.138;2023-08-07T13:24:15;9.80;;;2.70;;
77061;SDS011;65989;51.686;5.138;2023-08-07T13:26:41;9.05;;;2.33;;
77061;SDS011;65989;51.686;5.138;2023-08-07T13:29:13;5.80;;;2.50;;
77061;SDS011;65989;51.686;5.138;2023-08-07T13:31:38;7.15;;;2.40;;
77061;SDS011;65989;51.686;5.138;2023-08-07T13:34:03;7.43;;;2.90;;
77061;SDS011;65989;51.686;5.138;2023-08-07T13:36:36;9.45;;;2.63;;
77061;SDS011;65989;51.686;5.138;2023-08-07T13:39:01;9.93;;;2.47;;
77061;SDS011;65989;51.686;5.138;2023-08-07T13:41:27;7.90;;;2.63;;
77061;SDS011;65989;51.686;5.138;2023-08-07T13:43:52;7.28;;;2.45;;
77061;SDS011;65989;51.686;5.138;2023-08-07T13:46:17;6.93;;;2.40;;
77061;SDS011;65989;51.686;5.138;2023-08-07T13:48:43;11.43;;;2.60;;
77061;SDS011;65989;51.686;5.138;2023-08-07T13:51:09;10.60;;;2.63;;
77061;SDS011;65989;51.686;5.138;2023-08-07T13:53:34;7.70;;;2.47;;
77061;SDS011;65989;51.686;5.138;2023-08-07T13:56:00;7.07;;;2.40;;
77061;SDS011;65989;51.686;5.138;2023-08-07T13:58:25;6.50;;;2.60;;
77061;SDS011;65989;51.686;5.138;2023-08-07T14:00:50;9.63;;;2.50;;
77061;SDS011;65989;51.686;5.138;2023-08-07T14:03:15;7.20;;;2.37;;
77061;SDS011;65989;51.686;5.138;2023-08-07T14:05:41;6.63;;;2.23;;
77061;SDS011;65989;51.686;5.138;2023-08-07T14:08:06;8.73;;;2.50;;
77061;SDS011;65989;51.686;5.138;2023-08-07T14:10:31;9.23;;;2.43;;
77061;SDS011;65989;51.686;5.138;2023-08-07T14:12:56;9.83;;;2.40;;
77061;SDS011;65989;51.686;5.138;2023-08-07T14:15:22;6.13;;;2.17;;
77061;SDS011;65989;51.686;5.138;2023-08-07T14:17:47;6.53;;;2.50;;
77061;SDS011;65989;51.686;5.138;2023-08-07T14:20:12;8.27;;;2.60;;
77061;SDS011;65989;51.686;5.138;2023-08-07T14:22:37;6.87;;;2.63;;
77061;SDS011;65989;51.686;5.138;2023-08-07T14:25:03;11.03;;;2.70;;
77061;SDS011;65989;51.686;5.138;2023-08-07T14:27:28;7.95;;;2.40;;
77061;SDS011;65989;51.686;5.138;2023-08-07T14:29:54;6.97;;;2.50;;
77061;SDS011;65989;51.686;5.138;2023-08-07T14:32:19;13.13;;;3.00;;
77061;SDS011;65989;51.686;5.138;2023-08-07T14:34:44;9.63;;;2.80;;
77061;SDS011;65989;51.686;5.138;2023-08-07T14:37:11;10.55;;;2.90;;
77061;SDS011;65989;51.686;5.138;2023-08-07T14:39:37;7.43;;;2.80;;
77061;SDS011;65989;51.686;5.138;2023-08-07T14:42:02;5.87;;;2.50;;